sensor_id;sensor_type;location;lat;lon;timestamp;P1;durP1;ratioP1;P2;durP2;ratioP2
5297;SDS011;14738;42.668;23.250;2023-11-19T00:02:18;3.33;;;3.17;;
5297;SDS011;14738;42.668;23.250;2023-11-19T00:04:44;3.00;;;2.90;;
5297;SDS011;14738;42.668;23.250;2023-11-19T00:07:09;3.77;;;3.57;;
5297;SDS011;14738;42.668;23.250;2023-11-19T00:09:37;3.50;;;3.20;;
5297;SDS011;14738;42.668;23.250;2023-11-19T00:12:06;3.57;;;3.27;;
5297;SDS011;14738;42.668;23.250;2023-11-19T00:14:32;3.33;;;3.13;;
5297;SDS011;14738;42.668;23.250;2023-11-19T00:16:59;2.70;;;2.60;;
5297;SDS011;14738;42.668;23.250;2023-11-19T00:19:24;3.20;;;3.00;;
5297;SDS011;14738;42.668;23.250;2023-11-19T00:21:51;3.43;;;3.23;;
5297;SDS011;14738;42.668;23.250;2023-11-19T00:24:17;3.00;;;2.90;;
5297;SDS011;14738;42.668;23.250;2023-11-19T00:26:43;3.87;;;3.57;;
5297;SDS011;14738;42.668;23.250;2023-11-19T00:29:08;3.83;;;3.40;;
5297;SDS011;14738;42.668;23.250;2023-11-19T00:31:34;3.60;;;3.30;;
5297;SDS011;14738;42.668;23.250;2023-11-19T00:33:59;3.17;;;3.07;;
5297;SDS011;14738;42.668;23.250;2023-11-19T00:36:25;3.07;;;2.97;;
5297;SDS011;14738;42.668;23.250;2023-11-19T00:38:50;3.53;;;3.33;;
5297;SDS011;14738;42.668;23.250;2023-11-19T00:41:17;3.13;;;3.03;;
5297;SDS011;14738;42.668;23.250;2023-11-19T00:43:43;3.07;;;2.97;;
5297;SDS011;14738;42.668;23.250;2023-11-19T00:46:08;3.40;;;3.23;;
5297;SDS011;14738;42.668;23.250;2023-11-19T00:48:35;3.70;;;3.50;;
5297;SDS011;14738;42.668;23.250;2023-11-19T00:51:01;6.30;;;3.50;;
5297;SDS011;14738;42.668;23.250;2023-11-19T00:53:26;3.40;;;3.20;;
5297;SDS011;14738;42.668;23.250;2023-11-19T00:55:52;3.10;;;2.90;;
5297;SDS011;14738;42.668;23.250;2023-11-19T00:58:17;3.10;;;3.00;;
5297;SDS011;14738;42.668;23.250;2023-11-19T01:00:43;3.30;;;3.10;;
5297;SDS011;14738;42.668;23.250;2023-11-19T01:03:09;2.90;;;2.70;;
5297;SDS011;14738;42.668;23.250;2023-11-19T01:05:35;3.17;;;2.97;;
5297;SDS011;14738;42.668;23.250;2023-11-19T01:08:00;2.83;;;2.73;;
5297;SDS011;14738;42.668;23.250;2023-11-19T01:10:26;3.13;;;2.80;;
5297;SDS011;14738;42.668;23.250;2023-11-19T01:12:51;2.73;;;2.63;;
5297;SDS011;14738;42.668;23.250;2023-11-19T01:15:17;3.37;;;3.07;;
5297;SDS011;14738;42.668;23.250;2023-11-19T01:17:44;3.37;;;3.07;;
5297;SDS011;14738;42.668;23.250;2023-11-19T01:20:09;3.10;;;3.00;;
5297;SDS011;14738;42.668;23.250;2023-11-19T01:22:38;3.20;;;3.00;;
5297;SDS011;14738;42.668;23.250;2023-11-19T01:25:03;3.23;;;3.13;;
5297;SDS011;14738;42.668;23.250;2023-11-19T01:27:30;3.00;;;2.90;;
5297;SDS011;14738;42.668;23.250;2023-11-19T01:29:56;2.90;;;2.80;;
5297;SDS011;14738;42.668;23.250;2023-11-19T01:32:21;3.00;;;2.90;;
5297;SDS011;14738;42.668;23.250;2023-11-19T01:34:49;3.30;;;3.10;;
5297;SDS011;14738;42.668;23.250;2023-11-19T01:37:14;3.17;;;3.07;;
5297;SDS011;14738;42.668;23.250;2023-11-19T01:39:40;3.30;;;3.10;;
5297;SDS011;14738;42.668;23.250;2023-11-19T01:42:05;2.87;;;2.77;;
5297;SDS011;14738;42.668;23.250;2023-11-19T01:44:31;3.30;;;3.10;;
5297;SDS011;14738;42.668;23.250;2023-11-19T01:46:57;2.97;;;2.80;;
5297;SDS011;14738;42.668;23.250;2023-11-19T01:49:22;2.87;;;2.77;;
5297;SDS011;14738;42.668;23.250;2023-11-19T01:51:48;3.07;;;2.90;;
5297;SDS011;14738;42.668;23.250;2023-11-19T01:54:14;3.30;;;3.10;;
5297;SDS011;14738;42.668;23.250;2023-11-19T01:56:40;2.73;;;2.53;;
5297;SDS011;14738;42.668;23.250;2023-11-19T01:59:07;2.90;;;2.60;;
5297;SDS011;14738;42.668;23.250;2023-11-19T02:01:34;3.43;;;3.23;;
5297;SDS011;14738;42.668;23.250;2023-11-19T02:04:04;2.90;;;2.80;;
5297;SDS011;14738;42.668;23.250;2023-11-19T02:06:32;3.10;;;2.93;;
5297;SDS011;14738;42.668;23.250;2023-11-19T02:08:59;2.37;;;2.27;;
5297;SDS011;14738;42.668;23.250;2023-11-19T02:11:25;3.23;;;3.03;;
5297;SDS011;14738;42.668;23.250;2023-11-19T02:13:54;3.23;;;3.13;;
5297;SDS011;14738;42.668;23.250;2023-11-19T02:16:22;2.70;;;2.60;;
5297;SDS011;14738;42.668;23.250;2023-11-19T02:18:48;3.00;;;2.90;;
5297;SDS011;14738;42.668;23.250;2023-11-19T02:21:13;2.80;;;2.70;;
5297;SDS011;14738;42.668;23.250;2023-11-19T02:23:40;2.67;;;2.57;;
5297;SDS011;14738;42.668;23.250;2023-11-19T02:28:34;2.73;;;2.63;;
5297;SDS011;14738;42.668;23.250;2023-11-19T02:31:01;2.47;;;2.37;;
5297;SDS011;14738;42.668;23.250;2023-11-19T02:33:26;2.87;;;2.63;;
5297;SDS011;14738;42.668;23.250;2023-11-19T02:35:51;2.73;;;2.63;;
5297;SDS011;14738;42.668;23.250;2023-11-19T02:38:17;3.07;;;2.87;;
5297;SDS011;14738;42.668;23.250;2023-11-19T02:40:42;2.80;;;2.60;;
5297;SDS011;14738;42.668;23.250;2023-11-19T02:43:08;2.90;;;2.80;;
5297;SDS011;14738;42.668;23.250;2023-11-19T02:45:33;4.03;;;2.90;;
5297;SDS011;14738;42.668;23.250;2023-11-19T02:47:59;2.90;;;2.70;;
5297;SDS011;14738;42.668;23.250;2023-11-19T02:50:26;5.00;;;2.80;;
5297;SDS011;14738;42.668;23.250;2023-11-19T02:52:53;3.00;;;2.80;;
5297;SDS011;14738;42.668;23.250;2023-11-19T02:55:21;2.47;;;2.37;;
5297;SDS011;14738;42.668;23.250;2023-11-19T02:57:48;2.97;;;2.87;;
5297;SDS011;14738;42.668;23.250;2023-11-19T03:02:40;2.53;;;2.42;;
5297;SDS011;14738;42.668;23.250;2023-11-19T03:05:14;2.90;;;2.80;;
5297;SDS011;14738;42.668;23.250;2023-11-19T03:07:44;3.43;;;2.80;;
5297;SDS011;14738;42.668;23.250;2023-11-19T03:10:10;2.73;;;2.63;;
5297;SDS011;14738;42.668;23.250;2023-11-19T03:12:39;2.40;;;2.30;;
5297;SDS011;14738;42.668;23.250;2023-11-19T03:15:05;3.47;;;2.70;;
5297;SDS011;14738;42.668;23.250;2023-11-19T03:17:30;2.90;;;2.70;;
5297;SDS011;14738;42.668;23.250;2023-11-19T03:19:56;2.43;;;2.33;;
5297;SDS011;14738;42.668;23.250;2023-11-19T03:22:21;3.10;;;2.90;;
5297;SDS011;14738;42.668;23.250;2023-11-19T03:24:47;3.07;;;2.97;;
5297;SDS011;14738;42.668;23.250;2023-11-19T03:27:12;2.50;;;2.40;;
5297;SDS011;14738;42.668;23.250;2023-11-19T03:29:37;2.83;;;2.73;;
5297;SDS011;14738;42.668;23.250;2023-11-19T03:32:03;2.63;;;2.53;;
5297;SDS011;14738;42.668;23.250;2023-11-19T03:34:29;2.87;;;2.77;;
5297;SDS011;14738;42.668;23.250;2023-11-19T03:36:55;2.50;;;2.40;;
5297;SDS011;14738;42.668;23.250;2023-11-19T03:39:21;2.70;;;2.60;;
5297;SDS011;14738;42.668;23.250;2023-11-19T03:41:50;2.53;;;2.43;;
5297;SDS011;14738;42.668;23.250;2023-11-19T03:44:15;2.40;;;2.30;;
5297;SDS011;14738;42.668;23.250;2023-11-19T03:46:40;2.67;;;2.57;;
5297;SDS011;14738;42.668;23.250;2023-11-19T03:49:06;2.53;;;2.43;;
5297;SDS011;14738;42.668;23.250;2023-11-19T03:51:32;3.00;;;2.80;;
5297;SDS011;14738;42.668;23.250;2023-11-19T03:53:57;3.17;;;2.87;;
5297;SDS011;14738;42.668;23.250;2023-11-19T03:56:23;2.73;;;2.63;;
5297;SDS011;14738;42.668;23.250;2023-11-19T03:58:48;2.67;;;2.57;;
5297;SDS011;14738;42.668;23.250;2023-11-19T04:01:13;2.93;;;2.73;;
5297;SDS011;14738;42.668;23.250;2023-11-19T04:03:39;2.70;;;2.60;;
5297;SDS011;14738;42.668;23.250;2023-11-19T04:06:05;2.77;;;2.67;;
5297;SDS011;14738;42.668;23.250;2023-11-19T04:08:30;2.70;;;2.50;;
5297;SDS011;14738;42.668;23.250;2023-11-19T04:10:56;3.20;;;3.10;;
5297;SDS011;14738;42.668;23.250;2023-11-19T04:13:21;5.80;;;2.63;;
5297;SDS011;14738;42.668;23.250;2023-11-19T04:15:47;3.27;;;3.07;;
5297;SDS011;14738;42.668;23.250;2023-11-19T04:18:14;3.10;;;2.80;;
5297;SDS011;14738;42.668;23.250;2023-11-19T04:20:39;3.17;;;2.97;;
5297;SDS011;14738;42.668;23.250;2023-11-19T04:23:07;2.67;;;2.50;;
5297;SDS011;14738;42.668;23.250;2023-11-19T04:25:33;3.20;;;3.00;;
5297;SDS011;14738;42.668;23.250;2023-11-19T04:27:58;2.50;;;2.40;;
5297;SDS011;14738;42.668;23.250;2023-11-19T04:30:23;3.30;;;3.10;;
5297;SDS011;14738;42.668;23.250;2023-11-19T04:32:49;3.00;;;2.80;;
5297;SDS011;14738;42.668;23.250;2023-11-19T04:35:14;3.57;;;3.37;;
5297;SDS011;14738;42.668;23.250;2023-11-19T04:37:41;2.83;;;2.73;;
5297;SDS011;14738;42.668;23.250;2023-11-19T04:40:07;2.80;;;2.70;;
5297;SDS011;14738;42.668;23.250;2023-11-19T04:44:57;3.22;;;3.03;;
5297;SDS011;14738;42.668;23.250;2023-11-19T04:47:23;3.10;;;2.90;;
5297;SDS011;14738;42.668;23.250;2023-11-19T04:49:48;3.37;;;3.17;;
5297;SDS011;14738;42.668;23.250;2023-11-19T04:52:16;5.00;;;2.63;;
5297;SDS011;14738;42.668;23.250;2023-11-19T04:54:42;4.30;;;3.90;;
5297;SDS011;14738;42.668;23.250;2023-11-19T04:57:08;3.23;;;3.07;;
5297;SDS011;14738;42.668;23.250;2023-11-19T04:59:37;3.07;;;2.87;;
5297;SDS011;14738;42.668;23.250;2023-11-19T05:02:03;3.67;;;3.47;;
5297;SDS011;14738;42.668;23.250;2023-11-19T05:04:29;3.10;;;3.00;;
5297;SDS011;14738;42.668;23.250;2023-11-19T05:06:55;3.07;;;2.83;;
5297;SDS011;14738;42.668;23.250;2023-11-19T05:09:20;2.60;;;2.50;;
5297;SDS011;14738;42.668;23.250;2023-11-19T05:11:46;2.97;;;2.77;;
5297;SDS011;14738;42.668;23.250;2023-11-19T05:14:11;2.67;;;2.50;;
5297;SDS011;14738;42.668;23.250;2023-11-19T05:16:39;3.03;;;2.90;;
5297;SDS011;14738;42.668;23.250;2023-11-19T05:19:05;2.73;;;2.63;;
5297;SDS011;14738;42.668;23.250;2023-11-19T05:21:30;3.20;;;3.00;;
5297;SDS011;14738;42.668;23.250;2023-11-19T05:23:55;2.50;;;2.40;;
5297;SDS011;14738;42.668;23.250;2023-11-19T05:26:22;2.73;;;2.57;;
5297;SDS011;14738;42.668;23.250;2023-11-19T05:28:48;2.70;;;2.60;;
5297;SDS011;14738;42.668;23.250;2023-11-19T05:31:15;2.73;;;2.53;;
5297;SDS011;14738;42.668;23.250;2023-11-19T05:33:42;2.40;;;2.30;;
5297;SDS011;14738;42.668;23.250;2023-11-19T05:36:07;2.60;;;2.50;;
5297;SDS011;14738;42.668;23.250;2023-11-19T05:38:33;3.07;;;2.93;;
5297;SDS011;14738;42.668;23.250;2023-11-19T05:41:00;2.57;;;2.37;;
5297;SDS011;14738;42.668;23.250;2023-11-19T05:43:25;2.80;;;2.70;;
5297;SDS011;14738;42.668;23.250;2023-11-19T05:45:50;2.73;;;2.63;;
5297;SDS011;14738;42.668;23.250;2023-11-19T05:48:16;2.77;;;2.67;;
5297;SDS011;14738;42.668;23.250;2023-11-19T05:50:42;3.27;;;3.07;;
5297;SDS011;14738;42.668;23.250;2023-11-19T05:53:09;3.60;;;3.17;;
5297;SDS011;14738;42.668;23.250;2023-11-19T05:55:38;3.30;;;3.10;;
5297;SDS011;14738;42.668;23.250;2023-11-19T05:58:25;3.67;;;3.47;;
5297;SDS011;14738;42.668;23.250;2023-11-19T06:00:51;4.60;;;3.93;;
5297;SDS011;14738;42.668;23.250;2023-11-19T06:03:17;6.30;;;3.13;;
5297;SDS011;14738;42.668;23.250;2023-11-19T06:05:46;2.60;;;2.50;;
5297;SDS011;14738;42.668;23.250;2023-11-19T06:08:12;2.97;;;2.77;;
5297;SDS011;14738;42.668;23.250;2023-11-19T06:10:41;3.20;;;3.07;;
5297;SDS011;14738;42.668;23.250;2023-11-19T06:13:09;3.50;;;3.30;;
5297;SDS011;14738;42.668;23.250;2023-11-19T06:15:36;2.80;;;2.70;;
5297;SDS011;14738;42.668;23.250;2023-11-19T06:18:01;3.07;;;2.90;;
5297;SDS011;14738;42.668;23.250;2023-11-19T06:20:29;2.73;;;2.60;;
5297;SDS011;14738;42.668;23.250;2023-11-19T06:22:55;3.07;;;2.87;;
5297;SDS011;14738;42.668;23.250;2023-11-19T06:25:21;3.10;;;2.97;;
5297;SDS011;14738;42.668;23.250;2023-11-19T06:27:47;3.07;;;2.97;;
5297;SDS011;14738;42.668;23.250;2023-11-19T06:30:12;3.57;;;3.37;;
5297;SDS011;14738;42.668;23.250;2023-11-19T06:32:38;3.50;;;3.30;;
5297;SDS011;14738;42.668;23.250;2023-11-19T06:35:03;3.60;;;3.30;;
5297;SDS011;14738;42.668;23.250;2023-11-19T06:37:29;3.77;;;3.50;;
5297;SDS011;14738;42.668;23.250;2023-11-19T06:39:55;3.10;;;2.90;;
5297;SDS011;14738;42.668;23.250;2023-11-19T06:42:20;3.80;;;3.50;;
5297;SDS011;14738;42.668;23.250;2023-11-19T06:44:46;4.37;;;3.93;;
5297;SDS011;14738;42.668;23.250;2023-11-19T06:47:11;3.23;;;3.07;;
5297;SDS011;14738;42.668;23.250;2023-11-19T06:49:37;4.43;;;4.10;;
5297;SDS011;14738;42.668;23.250;2023-11-19T06:52:02;3.57;;;3.37;;
5297;SDS011;14738;42.668;23.250;2023-11-19T06:54:28;5.20;;;4.70;;
5297;SDS011;14738;42.668;23.250;2023-11-19T06:56:53;4.63;;;4.23;;
5297;SDS011;14738;42.668;23.250;2023-11-19T06:59:18;4.00;;;3.70;;
5297;SDS011;14738;42.668;23.250;2023-11-19T07:01:44;3.63;;;3.43;;
5297;SDS011;14738;42.668;23.250;2023-11-19T07:04:12;3.20;;;3.00;;
5297;SDS011;14738;42.668;23.250;2023-11-19T07:06:37;3.57;;;3.37;;
5297;SDS011;14738;42.668;23.250;2023-11-19T07:09:06;4.40;;;3.60;;
5297;SDS011;14738;42.668;23.250;2023-11-19T07:11:35;3.40;;;3.20;;
5297;SDS011;14738;42.668;23.250;2023-11-19T07:14:01;2.93;;;2.73;;
5297;SDS011;14738;42.668;23.250;2023-11-19T07:16:27;3.20;;;3.00;;
5297;SDS011;14738;42.668;23.250;2023-11-19T07:18:53;4.23;;;3.50;;
5297;SDS011;14738;42.668;23.250;2023-11-19T07:21:19;3.70;;;3.40;;
5297;SDS011;14738;42.668;23.250;2023-11-19T07:23:44;3.00;;;2.80;;
5297;SDS011;14738;42.668;23.250;2023-11-19T07:26:11;3.37;;;3.17;;
5297;SDS011;14738;42.668;23.250;2023-11-19T07:28:37;3.53;;;3.30;;
5297;SDS011;14738;42.668;23.250;2023-11-19T07:31:02;3.10;;;2.90;;
5297;SDS011;14738;42.668;23.250;2023-11-19T07:33:28;3.63;;;3.43;;
5297;SDS011;14738;42.668;23.250;2023-11-19T07:35:54;3.80;;;3.50;;
5297;SDS011;14738;42.668;23.250;2023-11-19T07:38:20;3.20;;;3.00;;
5297;SDS011;14738;42.668;23.250;2023-11-19T07:40:45;4.87;;;4.47;;
5297;SDS011;14738;42.668;23.250;2023-11-19T07:43:11;5.43;;;4.83;;
5297;SDS011;14738;42.668;23.250;2023-11-19T07:45:36;11.30;;;8.10;;
5297;SDS011;14738;42.668;23.250;2023-11-19T07:48:02;5.70;;;5.20;;
5297;SDS011;14738;42.668;23.250;2023-11-19T07:50:28;4.47;;;4.17;;
5297;SDS011;14738;42.668;23.250;2023-11-19T07:52:55;5.60;;;4.73;;
5297;SDS011;14738;42.668;23.250;2023-11-19T07:55:20;3.73;;;3.53;;
5297;SDS011;14738;42.668;23.250;2023-11-19T07:57:46;3.57;;;3.00;;
5297;SDS011;14738;42.668;23.250;2023-11-19T08:00:12;4.13;;;3.83;;
5297;SDS011;14738;42.668;23.250;2023-11-19T08:02:38;4.20;;;3.90;;
5297;SDS011;14738;42.668;23.250;2023-11-19T08:05:04;4.70;;;4.40;;
5297;SDS011;14738;42.668;23.250;2023-11-19T08:07:29;4.77;;;4.47;;
5297;SDS011;14738;42.668;23.250;2023-11-19T08:09:54;5.37;;;4.97;;
5297;SDS011;14738;42.668;23.250;2023-11-19T08:12:20;3.83;;;3.57;;
5297;SDS011;14738;42.668;23.250;2023-11-19T08:14:45;4.20;;;3.90;;
5297;SDS011;14738;42.668;23.250;2023-11-19T08:17:11;3.70;;;3.43;;
5297;SDS011;14738;42.668;23.250;2023-11-19T08:19:36;3.30;;;3.17;;
5297;SDS011;14738;42.668;23.250;2023-11-19T08:22:01;3.90;;;3.70;;
5297;SDS011;14738;42.668;23.250;2023-11-19T08:24:27;4.07;;;3.83;;
5297;SDS011;14738;42.668;23.250;2023-11-19T08:26:53;4.83;;;4.23;;
5297;SDS011;14738;42.668;23.250;2023-11-19T08:29:19;3.93;;;3.73;;
5297;SDS011;14738;42.668;23.250;2023-11-19T08:36:35;3.50;;;3.30;;
5297;SDS011;14738;42.668;23.250;2023-11-19T08:39:00;4.20;;;3.67;;
5297;SDS011;14738;42.668;23.250;2023-11-19T08:41:25;3.87;;;3.67;;
5297;SDS011;14738;42.668;23.250;2023-11-19T08:43:52;3.30;;;3.10;;
5297;SDS011;14738;42.668;23.250;2023-11-19T08:46:17;3.67;;;3.43;;
5297;SDS011;14738;42.668;23.250;2023-11-19T08:48:43;4.00;;;3.13;;
5297;SDS011;14738;42.668;23.250;2023-11-19T08:51:08;5.23;;;3.17;;
5297;SDS011;14738;42.668;23.250;2023-11-19T08:53:33;4.20;;;3.80;;
5297;SDS011;14738;42.668;23.250;2023-11-19T08:55:59;7.93;;;4.53;;
5297;SDS011;14738;42.668;23.250;2023-11-19T09:00:50;7.15;;;5.93;;
5297;SDS011;14738;42.668;23.250;2023-11-19T09:03:15;5.50;;;4.77;;
5297;SDS011;14738;42.668;23.250;2023-11-19T09:05:41;3.93;;;3.70;;
5297;SDS011;14738;42.668;23.250;2023-11-19T09:08:06;4.10;;;3.80;;
5297;SDS011;14738;42.668;23.250;2023-11-19T09:10:32;4.00;;;3.70;;
5297;SDS011;14738;42.668;23.250;2023-11-19T09:12:57;3.67;;;3.47;;
5297;SDS011;14738;42.668;23.250;2023-11-19T09:15:23;3.90;;;3.60;;
5297;SDS011;14738;42.668;23.250;2023-11-19T09:17:49;5.33;;;3.70;;
5297;SDS011;14738;42.668;23.250;2023-11-19T09:20:14;3.87;;;3.60;;
5297;SDS011;14738;42.668;23.250;2023-11-19T09:22:41;3.77;;;3.30;;
5297;SDS011;14738;42.668;23.250;2023-11-19T09:25:06;3.23;;;3.03;;
5297;SDS011;14738;42.668;23.250;2023-11-19T09:27:32;3.30;;;3.10;;
5297;SDS011;14738;42.668;23.250;2023-11-19T09:29:58;3.37;;;3.17;;
5297;SDS011;14738;42.668;23.250;2023-11-19T09:32:23;3.60;;;3.40;;
5297;SDS011;14738;42.668;23.250;2023-11-19T09:34:49;3.90;;;3.60;;
5297;SDS011;14738;42.668;23.250;2023-11-19T09:37:15;3.80;;;3.50;;
5297;SDS011;14738;42.668;23.250;2023-11-19T09:42:05;3.55;;;3.35;;
5297;SDS011;14738;42.668;23.250;2023-11-19T09:44:31;4.00;;;3.70;;
5297;SDS011;14738;42.668;23.250;2023-11-19T09:46:57;2.83;;;2.73;;
5297;SDS011;14738;42.668;23.250;2023-11-19T09:49:24;3.07;;;2.97;;
5297;SDS011;14738;42.668;23.250;2023-11-19T09:51:52;3.70;;;3.50;;
5297;SDS011;14738;42.668;23.250;2023-11-19T09:54:17;5.60;;;5.10;;
5297;SDS011;14738;42.668;23.250;2023-11-19T09:56:43;4.17;;;3.90;;
5297;SDS011;14738;42.668;23.250;2023-11-19T09:59:08;3.37;;;3.17;;
5297;SDS011;14738;42.668;23.250;2023-11-19T10:01:35;3.40;;;3.27;;
5297;SDS011;14738;42.668;23.250;2023-11-19T10:04:03;4.30;;;3.57;;
5297;SDS011;14738;42.668;23.250;2023-11-19T10:06:28;3.47;;;3.27;;
5297;SDS011;14738;42.668;23.250;2023-11-19T10:08:54;3.00;;;2.90;;
5297;SDS011;14738;42.668;23.250;2023-11-19T10:11:20;3.60;;;3.40;;
5297;SDS011;14738;42.668;23.250;2023-11-19T10:13:45;3.93;;;3.60;;
5297;SDS011;14738;42.668;23.250;2023-11-19T10:16:13;3.70;;;3.50;;
5297;SDS011;14738;42.668;23.250;2023-11-19T10:18:48;3.87;;;3.60;;
5297;SDS011;14738;42.668;23.250;2023-11-19T10:21:18;3.13;;;3.00;;
5297;SDS011;14738;42.668;23.250;2023-11-19T10:23:54;3.27;;;3.07;;
5297;SDS011;14738;42.668;23.250;2023-11-19T10:26:25;3.70;;;3.40;;
5297;SDS011;14738;42.668;23.250;2023-11-19T10:28:52;3.80;;;3.50;;
5297;SDS011;14738;42.668;23.250;2023-11-19T10:31:18;4.40;;;4.00;;
5297;SDS011;14738;42.668;23.250;2023-11-19T10:33:48;3.20;;;3.00;;
5297;SDS011;14738;42.668;23.250;2023-11-19T10:36:13;3.00;;;2.80;;
5297;SDS011;14738;42.668;23.250;2023-11-19T10:38:39;2.77;;;2.67;;
5297;SDS011;14738;42.668;23.250;2023-11-19T10:41:05;3.13;;;3.00;;
5297;SDS011;14738;42.668;23.250;2023-11-19T10:43:31;3.33;;;2.90;;
5297;SDS011;14738;42.668;23.250;2023-11-19T10:46:12;3.23;;;3.00;;
5297;SDS011;14738;42.668;23.250;2023-11-19T10:48:39;3.00;;;2.80;;
5297;SDS011;14738;42.668;23.250;2023-11-19T10:51:05;3.17;;;2.93;;
5297;SDS011;14738;42.668;23.250;2023-11-19T10:53:36;3.40;;;3.20;;
5297;SDS011;14738;42.668;23.250;2023-11-19T10:56:04;3.10;;;2.93;;
5297;SDS011;14738;42.668;23.250;2023-11-19T10:58:33;3.23;;;3.03;;
5297;SDS011;14738;42.668;23.250;2023-11-19T11:01:03;2.90;;;2.80;;
5297;SDS011;14738;42.668;23.250;2023-11-19T11:03:39;3.20;;;2.90;;
5297;SDS011;14738;42.668;23.250;2023-11-19T11:06:05;3.40;;;3.20;;
5297;SDS011;14738;42.668;23.250;2023-11-19T11:08:31;3.20;;;2.93;;
5297;SDS011;14738;42.668;23.250;2023-11-19T11:10:57;3.90;;;3.60;;
5297;SDS011;14738;42.668;23.250;2023-11-19T11:13:23;4.43;;;4.03;;
5297;SDS011;14738;42.668;23.250;2023-11-19T11:15:50;3.13;;;2.93;;
5297;SDS011;14738;42.668;23.250;2023-11-19T11:18:16;3.57;;;3.27;;
5297;SDS011;14738;42.668;23.250;2023-11-19T11:20:45;3.33;;;3.13;;
5297;SDS011;14738;42.668;23.250;2023-11-19T11:23:30;3.33;;;3.10;;
5297;SDS011;14738;42.668;23.250;2023-11-19T11:32:15;3.90;;;3.10;;
5297;SDS011;14738;42.668;23.250;2023-11-19T11:39:57;4.40;;;3.30;;
5297;SDS011;14738;42.668;23.250;2023-11-19T11:50:10;2.53;;;2.43;;
5297;SDS011;14738;42.668;23.250;2023-11-19T11:55:54;3.10;;;2.90;;
5297;SDS011;14738;42.668;23.250;2023-11-19T11:58:23;2.87;;;2.47;;
5297;SDS011;14738;42.668;23.250;2023-11-19T12:00:51;2.70;;;2.60;;
5297;SDS011;14738;42.668;23.250;2023-11-19T12:03:19;4.03;;;3.13;;
5297;SDS011;14738;42.668;23.250;2023-11-19T12:05:47;2.60;;;2.50;;
5297;SDS011;14738;42.668;23.250;2023-11-19T12:08:13;3.50;;;3.20;;
5297;SDS011;14738;42.668;23.250;2023-11-19T12:10:47;4.50;;;4.10;;
5297;SDS011;14738;42.668;23.250;2023-11-19T12:13:14;3.90;;;3.60;;
5297;SDS011;14738;42.668;23.250;2023-11-19T12:18:21;3.20;;;3.00;;
5297;SDS011;14738;42.668;23.250;2023-11-19T12:20:48;3.30;;;3.00;;
5297;SDS011;14738;42.668;23.250;2023-11-19T12:23:14;3.10;;;2.90;;
5297;SDS011;14738;42.668;23.250;2023-11-19T12:25:40;3.30;;;3.00;;
5297;SDS011;14738;42.668;23.250;2023-11-19T12:28:11;2.50;;;2.40;;
5297;SDS011;14738;42.668;23.250;2023-11-19T12:30:38;2.90;;;2.70;;
5297;SDS011;14738;42.668;23.250;2023-11-19T12:33:07;3.00;;;2.80;;
5297;SDS011;14738;42.668;23.250;2023-11-19T12:35:45;3.17;;;2.97;;
5297;SDS011;14738;42.668;23.250;2023-11-19T12:38:20;3.30;;;3.07;;
5297;SDS011;14738;42.668;23.250;2023-11-19T12:41:02;2.40;;;2.30;;
5297;SDS011;14738;42.668;23.250;2023-11-19T12:43:28;3.10;;;2.90;;
5297;SDS011;14738;42.668;23.250;2023-11-19T12:45:53;3.23;;;3.00;;
5297;SDS011;14738;42.668;23.250;2023-11-19T12:48:19;2.30;;;2.20;;
5297;SDS011;14738;42.668;23.250;2023-11-19T12:50:51;3.20;;;2.90;;
5297;SDS011;14738;42.668;23.250;2023-11-19T12:53:21;2.33;;;2.23;;
5297;SDS011;14738;42.668;23.250;2023-11-19T12:55:48;3.90;;;3.60;;
5297;SDS011;14738;42.668;23.250;2023-11-19T12:58:29;2.53;;;2.43;;
5297;SDS011;14738;42.668;23.250;2023-11-19T13:00:59;2.50;;;2.40;;
5297;SDS011;14738;42.668;23.250;2023-11-19T13:03:38;3.30;;;3.10;;
5297;SDS011;14738;42.668;23.250;2023-11-19T13:06:04;3.50;;;3.30;;
5297;SDS011;14738;42.668;23.250;2023-11-19T13:08:54;3.43;;;3.30;;
5297;SDS011;14738;42.668;23.250;2023-11-19T13:11:33;4.07;;;3.70;;
5297;SDS011;14738;42.668;23.250;2023-11-19T13:14:05;3.47;;;3.27;;
5297;SDS011;14738;42.668;23.250;2023-11-19T13:16:33;3.20;;;3.00;;
5297;SDS011;14738;42.668;23.250;2023-11-19T13:19:01;2.83;;;2.67;;
5297;SDS011;14738;42.668;23.250;2023-11-19T13:21:26;2.63;;;2.50;;
5297;SDS011;14738;42.668;23.250;2023-11-19T13:23:52;2.00;;;1.90;;
5297;SDS011;14738;42.668;23.250;2023-11-19T13:26:17;2.80;;;2.60;;
5297;SDS011;14738;42.668;23.250;2023-11-19T13:28:43;2.40;;;2.30;;
5297;SDS011;14738;42.668;23.250;2023-11-19T13:31:08;3.00;;;2.80;;
5297;SDS011;14738;42.668;23.250;2023-11-19T13:33:35;3.47;;;3.03;;
5297;SDS011;14738;42.668;23.250;2023-11-19T13:36:01;2.70;;;2.60;;
5297;SDS011;14738;42.668;23.250;2023-11-19T13:38:31;2.93;;;2.73;;
5297;SDS011;14738;42.668;23.250;2023-11-19T13:40:57;3.23;;;3.03;;
5297;SDS011;14738;42.668;23.250;2023-11-19T13:43:23;2.50;;;2.30;;
5297;SDS011;14738;42.668;23.250;2023-11-19T13:45:49;4.50;;;3.17;;
5297;SDS011;14738;42.668;23.250;2023-11-19T13:48:15;12.67;;;7.80;;
5297;SDS011;14738;42.668;23.250;2023-11-19T13:50:41;17.70;;;10.33;;
5297;SDS011;14738;42.668;23.250;2023-11-19T13:53:07;16.17;;;9.73;;
5297;SDS011;14738;42.668;23.250;2023-11-19T13:55:33;19.53;;;10.50;;
5297;SDS011;14738;42.668;23.250;2023-11-19T13:57:58;24.40;;;11.63;;
5297;SDS011;14738;42.668;23.250;2023-11-19T14:00:23;13.43;;;6.27;;
5297;SDS011;14738;42.668;23.250;2023-11-19T14:02:49;4.50;;;4.20;;
5297;SDS011;14738;42.668;23.250;2023-11-19T14:05:15;2.97;;;2.73;;
5297;SDS011;14738;42.668;23.250;2023-11-19T14:07:43;6.07;;;3.23;;
5297;SDS011;14738;42.668;23.250;2023-11-19T14:10:09;2.77;;;2.63;;
5297;SDS011;14738;42.668;23.250;2023-11-19T14:12:38;2.90;;;2.53;;
5297;SDS011;14738;42.668;23.250;2023-11-19T14:15:04;3.13;;;2.93;;
5297;SDS011;14738;42.668;23.250;2023-11-19T14:17:34;2.90;;;2.70;;
5297;SDS011;14738;42.668;23.250;2023-11-19T14:20:00;2.83;;;2.67;;
5297;SDS011;14738;42.668;23.250;2023-11-19T14:22:27;3.10;;;2.80;;
5297;SDS011;14738;42.668;23.250;2023-11-19T14:24:53;4.00;;;3.20;;
5297;SDS011;14738;42.668;23.250;2023-11-19T14:27:20;3.20;;;2.90;;
5297;SDS011;14738;42.668;23.250;2023-11-19T14:29:47;3.07;;;2.87;;
5297;SDS011;14738;42.668;23.250;2023-11-19T14:32:12;3.60;;;3.30;;
5297;SDS011;14738;42.668;23.250;2023-11-19T14:34:38;2.90;;;2.63;;
5297;SDS011;14738;42.668;23.250;2023-11-19T14:37:03;4.73;;;3.00;;
5297;SDS011;14738;42.668;23.250;2023-11-19T14:39:29;3.33;;;3.03;;
5297;SDS011;14738;42.668;23.250;2023-11-19T14:41:56;3.37;;;3.10;;
5297;SDS011;14738;42.668;23.250;2023-11-19T14:44:25;4.63;;;4.20;;
5297;SDS011;14738;42.668;23.250;2023-11-19T14:46:51;3.60;;;3.30;;
5297;SDS011;14738;42.668;23.250;2023-11-19T14:49:17;4.13;;;3.73;;
5297;SDS011;14738;42.668;23.250;2023-11-19T14:51:42;3.97;;;3.67;;
5297;SDS011;14738;42.668;23.250;2023-11-19T14:54:07;4.10;;;3.70;;
5297;SDS011;14738;42.668;23.250;2023-11-19T14:56:33;4.83;;;2.80;;
5297;SDS011;14738;42.668;23.250;2023-11-19T14:58:58;6.70;;;3.53;;
5297;SDS011;14738;42.668;23.250;2023-11-19T15:01:24;3.70;;;3.40;;
5297;SDS011;14738;42.668;23.250;2023-11-19T15:03:50;4.10;;;3.80;;
5297;SDS011;14738;42.668;23.250;2023-11-19T15:06:16;6.10;;;3.97;;
5297;SDS011;14738;42.668;23.250;2023-11-19T15:08:41;3.43;;;3.23;;
5297;SDS011;14738;42.668;23.250;2023-11-19T15:11:07;3.60;;;3.30;;
5297;SDS011;14738;42.668;23.250;2023-11-19T15:13:34;5.43;;;3.80;;
5297;SDS011;14738;42.668;23.250;2023-11-19T15:16:01;3.90;;;3.40;;
5297;SDS011;14738;42.668;23.250;2023-11-19T15:18:27;4.30;;;3.90;;
5297;SDS011;14738;42.668;23.250;2023-11-19T15:20:52;3.13;;;2.83;;
5297;SDS011;14738;42.668;23.250;2023-11-19T15:23:18;4.23;;;3.87;;
5297;SDS011;14738;42.668;23.250;2023-11-19T15:25:44;9.33;;;4.53;;
5297;SDS011;14738;42.668;23.250;2023-11-19T15:28:09;4.90;;;3.53;;